Airfield :
LOGIN :

Register | Disclaimer

   EN    FR    IT 

 










Legend :    VFR   Marginal VFR   IFR   Intensive IFR   Very Intensive IFR
Visi :
Ceiling :
>= 8 km
>= 3000ft
5 to 8 km
1000 to 3000 ft
1500m to 5 km
500 to 1000 ft
800 to 1500m
200 to 500 ft
< 800m
< 200 ft
Symbols :   Thunderstorms  Fog  Heavy snow  Heavy precipitations  Wind > 20 kt
SIGMETs :     Misc.  Thunderstorms  Icing  Turbulence  Mountain Waves  Volcanic Ashes






- Airport Elevation : 49 ft
- IATA code : GLZ


EHGR - Gilze-Rijen Airbase

CURRENT METAR :
  • 181355Z AUTO 30011KT 260V320 9999 SCT049 BKN054 11/02 Q1020 BLU NOSIG

EXPIRED METARs :
  • 181325Z AUTO 28007KT 230V300 9999 FEW060 OVC220 12/02 Q1020 BLU NOSIG
  • 181255Z AUTO 27008KT 230V320 9999 SCT034 BKN041 BKN058 12/04 Q1020 BLU NOSIG
  • 181225Z AUTO 29010KT 250V330 9999 SCT046 BKN052 OVC061 10/03 Q1020 BLU NOSIG
  • 181155Z AUTO 29011KT 240V350 9999 OVC032 10/04 Q1020 BLU NOSIG
  • 181125Z AUTO 34005KT 260V360 9999 FEW037 BKN049 BKN053 11/03 Q1020 BLU NOSIG
  • 181055Z AUTO 31009KT 250V340 9999 SCT043 BKN048 BKN053 10/03 Q1020 BLU NOSIG
  • 181025Z AUTO 32009KT 270V010 9999 BKN054 10/05 Q1020 BLU NOSIG
  • 180955Z AUTO 33008KT 280V050 9999 BKN030 BKN035 BKN041 10/03 Q1020 BLU NOSIG
  • 180925Z AUTO 33008KT 280V050 9999 FEW029 BKN038 09/03 Q1020 BLU NOSIG

TAF TAF EHGR
Valid from the 18 at 13:00 until the 19 at 01:00 UTC


181225Z 1813/1901 30009KT 9999 SCT035 BKN050
PROB40
TEMPO 1813/1817 29010G20KT
BECMG 1817/1819 23008KT
BECMG 1822/1824 25012G22KT SCT018 OVC025



MET'MAP, your aeronautical weather chart ! - Copyright ORBIFLY December 2007 - Disclaimer

ORBIFLY MET'MAP TEAM :

Programming & Development : Alexandra Zaïnal
Original concept : Baudouin d'Aumeries
Technical & hardware support : Manuel Goepfert
Assistance : Marc-Olivier Méhu




SOURCES & CREDITS :

   NOAA